Time,TemperatureF,DewpointF,PressureIn,WindDirection,WindDirectionDegrees,WindSpeedMPH,WindSpeedGustMPH,Humidity,HourlyPrecipIn,Conditions,Clouds,dailyrainin,SoftwareType,DateUTC
2014-02-19 00:01:00,31.9,28.0,30.11,SSW,202,3.5,7.0,82,0.00,,,0.00,Rainwise IP-100,2014-02-19 05:01:00,
2014-02-19 00:02:00,31.9,28.0,30.11,SSW,202,2.1,7.0,81,0.00,,,0.00,Rainwise IP-100,2014-02-19 05:02:00,
2014-02-19 00:03:00,31.9,28.0,30.11,SSW,202,3.0,7.0,81,0.00,,,0.00,Rainwise IP-100,2014-02-19 05:03:00,
2014-02-19 00:04:00,31.9,28.0,30.11,SSW,202,3.3,7.0,81,0.00,,,0.00,Rainwise IP-100,2014-02-19 05:04:00,
2014-02-19 00:09:00,31.9,28.0,30.11,SW,225,5.4,6.0,81,0.00,,,0.00,Rainwise IP-100,2014-02-19 05:09:00,
2014-02-19 00:14:00,31.8,28.0,30.11,SSW,202,5.1,6.0,81,0.00,,,0.00,Rainwise IP-100,2014-02-19 05:14:00,
2014-02-19 00:19:00,31.7,28.0,30.11,SW,225,4.9,6.0,82,0.00,,,0.00,Rainwise IP-100,2014-02-19 05:19:00,
2014-02-19 00:24:00,31.6,28.0,30.11,SW,225,3.0,5.0,82,0.00,,,0.00,Rainwise IP-100,2014-02-19 05:24:00,
2014-02-19 00:29:00,31.5,28.0,30.11,SW,225,3.3,6.0,82,0.00,,,0.00,Rainwise IP-100,2014-02-19 05:29:00,
2014-02-19 00:34:00,31.5,28.0,30.10,SSW,202,3.3,7.0,82,0.00,,,0.00,Rainwise IP-100,2014-02-19 05:34:00,
2014-02-19 00:40:00,31.4,26.0,30.11,SW,225,3.0,5.0,82,0.00,,,0.00,Rainwise IP-100,2014-02-19 05:40:00,
2014-02-19 00:45:00,31.4,26.0,30.11,SW,225,3.0,5.0,82,0.00,,,0.00,Rainwise IP-100,2014-02-19 05:45:00,
2014-02-19 00:50:00,31.3,26.0,30.11,SW,225,3.0,6.0,81,0.00,,,0.00,Rainwise IP-100,2014-02-19 05:50:00,
2014-02-19 00:55:00,31.2,26.0,30.13,SSW,202,4.7,7.0,81,0.00,,,0.00,Rainwise IP-100,2014-02-19 05:55:00,
2014-02-19 01:00:00,31.1,26.0,30.12,SSW,202,4.2,7.0,82,0.00,,,0.00,Rainwise IP-100,2014-02-19 06:00:00,
2014-02-19 01:05:00,31.2,26.0,30.13,SW,225,4.2,9.0,82,0.00,,,0.00,Rainwise IP-100,2014-02-19 06:05:00,
2014-02-19 01:10:00,31.2,26.0,30.13,SW,225,5.8,11.0,81,0.00,,,0.00,Rainwise IP-100,2014-02-19 06:10:00,
2014-02-19 01:15:00,31.4,26.0,30.14,SW,225,5.6,10.0,81,0.00,,,0.00,Rainwise IP-100,2014-02-19 06:15:00,
2014-02-19 01:21:00,31.5,28.0,30.14,SSW,202,3.3,7.0,81,0.00,,,0.00,Rainwise IP-100,2014-02-19 06:21:00,
2014-02-19 01:26:00,31.5,26.0,30.14,SW,225,5.4,8.0,80,0.00,,,0.00,Rainwise IP-100,2014-02-19 06:26:00,
2014-02-19 01:31:00,31.6,26.0,30.14,WSW,247,4.0,9.0,80,0.00,,,0.00,Rainwise IP-100,2014-02-19 06:31:00,
2014-02-19 01:36:00,31.7,26.0,30.13,WSW,247,2.8,5.0,80,0.00,,,0.00,Rainwise IP-100,2014-02-19 06:36:00,
2014-02-19 01:41:00,31.6,26.0,30.14,WSW,247,4.4,5.0,79,0.00,,,0.00,Rainwise IP-100,2014-02-19 06:41:00,
2014-02-19 01:46:00,31.5,26.0,30.14,SW,225,2.6,5.0,79,0.00,,,0.00,Rainwise IP-100,2014-02-19 06:46:00,
2014-02-19 01:51:00,31.5,26.0,30.14,SW,225,2.6,5.0,80,0.00,,,0.00,Rainwise IP-100,2014-02-19 06:51:00,
2014-02-19 01:57:00,31.4,26.0,30.14,SSW,202,3.5,4.0,80,0.00,,,0.00,Rainwise IP-100,2014-02-19 06:57:00,
2014-02-19 02:02:00,31.3,26.0,30.13,SSW,202,2.3,3.0,80,0.00,,,0.00,Rainwise IP-100,2014-02-19 07:02:00,
2014-02-19 02:07:00,31.3,26.0,30.13,SSW,202,3.0,3.0,80,0.00,,,0.00,Rainwise IP-100,2014-02-19 07:07:00,
2014-02-19 02:12:00,31.2,26.0,30.13,SSW,202,2.3,3.0,81,0.00,,,0.00,Rainwise IP-100,2014-02-19 07:12:00,
2014-02-19 02:17:00,31.1,26.0,30.13,SW,225,2.1,3.0,81,0.00,,,0.00,Rainwise IP-100,2014-02-19 07:17:00,
2014-02-19 02:22:00,31.1,26.0,30.13,WSW,247,2.1,3.0,80,0.00,,,0.00,Rainwise IP-100,2014-02-19 07:22:00,
2014-02-19 02:27:00,31.1,26.0,30.13,SW,225,2.1,2.1,80,0.00,,,0.00,Rainwise IP-100,2014-02-19 07:27:00,
2014-02-19 02:32:00,31.0,26.0,30.13,SW,225,0.0,3.0,80,0.00,,,0.00,Rainwise IP-100,2014-02-19 07:32:00,
2014-02-19 02:38:00,30.9,26.0,30.12,SW,225,0.0,0.0,81,0.00,,,0.00,Rainwise IP-100,2014-02-19 07:38:00,
2014-02-19 02:43:00,30.6,26.0,30.12,SW,225,2.1,2.1,81,0.00,,,0.00,Rainwise IP-100,2014-02-19 07:43:00,
2014-02-19 02:48:00,30.3,26.0,30.12,SW,225,1.9,2.0,82,0.00,,,0.00,Rainwise IP-100,2014-02-19 07:48:00,
2014-02-19 02:53:00,30.2,26.0,30.12,SW,225,2.1,2.1,82,0.00,,,0.00,Rainwise IP-100,2014-02-19 07:53:00,
2014-02-19 02:58:00,30.3,26.0,30.12,SW,225,1.6,2.0,83,0.00,,,0.00,Rainwise IP-100,2014-02-19 07:58:00,
2014-02-19 03:03:00,30.2,26.0,30.12,SW,225,0.0,1.0,83,0.00,,,0.00,Rainwise IP-100,2014-02-19 08:03:00,
2014-02-19 03:08:00,29.9,26.0,30.12,SSW,202,2.1,2.1,83,0.00,,,0.00,Rainwise IP-100,2014-02-19 08:08:00,
2014-02-19 03:14:00,29.9,26.0,30.12,SSW,202,2.8,2.8,83,0.00,,,0.00,Rainwise IP-100,2014-02-19 08:14:00,
2014-02-19 03:19:00,30.2,26.0,30.12,SSW,202,2.8,3.0,82,0.00,,,0.00,Rainwise IP-100,2014-02-19 08:19:00,
2014-02-19 03:24:00,30.4,26.0,30.12,SSW,202,2.6,3.0,81,0.00,,,0.00,Rainwise IP-100,2014-02-19 08:24:00,
2014-02-19 03:29:00,30.4,26.0,30.12,SSW,202,3.3,3.3,81,0.00,,,0.00,Rainwise IP-100,2014-02-19 08:29:00,
2014-02-19 03:34:00,30.5,26.0,30.11,SSW,202,2.3,3.0,80,0.00,,,0.00,Rainwise IP-100,2014-02-19 08:34:00,
2014-02-19 03:39:00,30.4,26.0,30.11,SSW,202,1.4,2.0,80,0.00,,,0.00,Rainwise IP-100,2014-02-19 08:39:00,
2014-02-19 03:44:00,29.8,26.0,30.11,SSW,202,0.0,1.0,80,0.00,,,0.00,Rainwise IP-100,2014-02-19 08:44:00,
2014-02-19 03:49:00,29.0,24.0,30.11,SSW,202,0.0,0.0,83,0.00,,,0.00,Rainwise IP-100,2014-02-19 08:49:00,
2014-02-19 03:55:00,28.6,24.0,30.11,SSW,202,0.0,0.0,84,0.00,,,0.00,Rainwise IP-100,2014-02-19 08:55:00,
2014-02-19 04:00:00,28.6,24.0,30.11,SSW,202,0.0,1.0,84,0.00,,,0.00,Rainwise IP-100,2014-02-19 09:00:00,
2014-02-19 04:05:00,28.4,24.0,30.11,SSW,202,1.6,1.6,85,0.00,,,0.00,Rainwise IP-100,2014-02-19 09:05:00,
2014-02-19 04:10:00,28.3,24.0,30.10,SSW,202,1.4,2.0,85,0.00,,,0.00,Rainwise IP-100,2014-02-19 09:10:00,
2014-02-19 04:15:00,27.9,24.0,30.10,SSW,202,0.0,1.0,86,0.00,,,0.00,Rainwise IP-100,2014-02-19 09:15:00,
2014-02-19 04:20:00,27.8,24.0,30.10,SSW,202,1.6,1.6,87,0.00,,,0.00,Rainwise IP-100,2014-02-19 09:20:00,
2014-02-19 04:25:00,27.6,24.0,30.11,SSW,202,2.6,2.6,87,0.00,,,0.00,Rainwise IP-100,2014-02-19 09:25:00,
2014-02-19 04:31:00,27.3,24.0,30.11,SSW,202,2.3,3.0,88,0.00,,,0.00,Rainwise IP-100,2014-02-19 09:31:00,
2014-02-19 04:36:00,27.6,24.0,30.10,SSE,157,1.9,2.0,88,0.00,,,0.00,Rainwise IP-100,2014-02-19 09:36:00,
2014-02-19 04:41:00,28.1,24.0,30.11,SSE,157,1.2,1.2,87,0.00,,,0.00,Rainwise IP-100,2014-02-19 09:41:00,
2014-02-19 04:46:00,28.0,24.0,30.11,SSE,157,1.6,2.0,86,0.00,,,0.00,Rainwise IP-100,2014-02-19 09:46:00,
2014-02-19 04:51:00,28.2,24.0,30.11,South,180,3.0,3.0,86,0.00,,,0.00,Rainwise IP-100,2014-02-19 09:51:00,
2014-02-19 04:56:00,28.8,24.0,30.11,South,180,2.8,4.0,84,0.00,,,0.00,Rainwise IP-100,2014-02-19 09:56:00,
2014-02-19 05:01:00,29.1,24.0,30.11,South,180,3.0,4.0,84,0.00,,,0.00,Rainwise IP-100,2014-02-19 10:01:00,
2014-02-19 05:06:00,29.1,24.0,30.11,South,180,3.0,4.0,83,0.00,,,0.00,Rainwise IP-100,2014-02-19 10:06:00,
2014-02-19 05:12:00,29.0,24.0,30.10,SSE,157,3.3,3.3,83,0.00,,,0.00,Rainwise IP-100,2014-02-19 10:12:00,
2014-02-19 05:17:00,29.2,24.0,30.10,SSE,157,3.0,4.0,82,0.00,,,0.00,Rainwise IP-100,2014-02-19 10:17:00,
2014-02-19 05:22:00,29.8,26.0,30.09,SE,135,2.1,4.0,81,0.00,,,0.00,Rainwise IP-100,2014-02-19 10:22:00,
2014-02-19 05:27:00,30.1,26.0,30.09,SE,135,1.2,2.0,80,0.00,,,0.00,Rainwise IP-100,2014-02-19 10:27:00,
2014-02-19 05:32:00,29.0,24.0,30.08,SE,135,1.2,2.0,81,0.00,,,0.00,Rainwise IP-100,2014-02-19 10:32:00,
2014-02-19 05:37:00,28.0,23.0,30.07,East,90,3.3,3.3,83,0.00,,,0.00,Rainwise IP-100,2014-02-19 10:37:00,
2014-02-19 05:42:00,27.6,24.0,30.06,ESE,112,4.2,6.0,85,0.00,,,0.00,Rainwise IP-100,2014-02-19 10:42:00,
2014-02-19 05:48:00,27.5,24.0,30.06,ESE,112,4.4,6.0,85,0.00,,,0.00,Rainwise IP-100,2014-02-19 10:48:00,
2014-02-19 05:53:00,27.4,24.0,30.05,ESE,112,3.7,5.0,85,0.00,,,0.00,Rainwise IP-100,2014-02-19 10:53:00,
2014-02-19 05:58:00,27.6,24.0,30.06,ESE,112,2.6,4.0,85,0.00,,,0.00,Rainwise IP-100,2014-02-19 10:58:00,
2014-02-19 06:03:00,28.0,24.0,30.06,SSW,202,3.0,5.0,85,0.00,,,0.00,Rainwise IP-100,2014-02-19 11:03:00,
2014-02-19 06:08:00,28.4,24.0,30.07,South,180,4.4,4.4,85,0.00,,,0.00,Rainwise IP-100,2014-02-19 11:08:00,
2014-02-19 06:13:00,28.6,26.0,30.07,SSW,202,3.0,4.0,85,0.00,,,0.00,Rainwise IP-100,2014-02-19 11:13:00,
2014-02-19 06:18:00,28.6,26.0,30.07,SSE,157,2.8,3.0,85,0.00,,,0.00,Rainwise IP-100,2014-02-19 11:18:00,
2014-02-19 06:23:00,28.6,26.0,30.06,SSE,157,1.4,3.0,85,0.00,,,0.00,Rainwise IP-100,2014-02-19 11:23:00,
2014-02-19 06:29:00,28.7,26.0,30.06,SSE,157,0.0,1.0,86,0.00,,,0.00,Rainwise IP-100,2014-02-19 11:29:00,
2014-02-19 06:34:00,28.6,26.0,30.06,SSE,157,0.0,0.0,86,0.00,,,0.00,Rainwise IP-100,2014-02-19 11:34:00,
2014-02-19 06:39:00,28.0,24.0,30.05,ESE,112,2.1,2.1,86,0.00,,,0.00,Rainwise IP-100,2014-02-19 11:39:00,
2014-02-19 06:44:00,27.5,24.0,30.05,ESE,112,0.0,2.0,88,0.00,,,0.00,Rainwise IP-100,2014-02-19 11:44:00,
2014-02-19 06:49:00,27.3,24.0,30.06,East,90,2.1,2.1,89,0.00,,,0.00,Rainwise IP-100,2014-02-19 11:49:00,
2014-02-19 06:54:00,26.8,26.0,30.05,East,90,3.0,3.0,90,0.00,,,0.00,Rainwise IP-100,2014-02-19 11:54:00,
2014-02-19 06:59:00,26.4,24.0,30.05,East,90,2.8,3.0,91,0.00,,,0.00,Rainwise IP-100,2014-02-19 11:59:00,
2014-02-19 07:05:00,26.4,24.0,30.04,ESE,112,3.0,4.0,92,0.00,,,0.00,Rainwise IP-100,2014-02-19 12:05:00,
2014-02-19 07:10:00,27.6,26.0,30.04,ESE,112,4.0,6.0,92,0.00,,,0.00,Rainwise IP-100,2014-02-19 12:10:00,
2014-02-19 07:15:00,29.0,28.0,30.04,SSE,157,3.7,4.0,91,0.00,,,0.00,Rainwise IP-100,2014-02-19 12:15:00,
2014-02-19 07:20:00,29.7,28.0,30.04,ESE,112,2.3,8.0,89,0.00,,,0.00,Rainwise IP-100,2014-02-19 12:20:00,
2014-02-19 07:25:00,30.1,28.0,30.04,ESE,112,3.5,7.0,89,0.00,,,0.00,Rainwise IP-100,2014-02-19 12:25:00,
2014-02-19 07:30:00,30.5,28.0,30.04,ESE,112,3.7,7.0,88,0.00,,,0.00,Rainwise IP-100,2014-02-19 12:30:00,
2014-02-19 07:35:00,30.9,28.0,30.04,ESE,112,4.7,6.0,88,0.00,,,0.00,Rainwise IP-100,2014-02-19 12:35:00,
2014-02-19 07:40:00,31.3,28.0,30.04,ESE,112,5.1,6.0,88,0.00,,,0.00,Rainwise IP-100,2014-02-19 12:40:00,
2014-02-19 07:46:00,31.7,29.0,30.03,East,90,5.8,7.0,88,0.00,,,0.00,Rainwise IP-100,2014-02-19 12:46:00,
2014-02-19 07:51:00,32.2,29.0,30.01,ESE,112,4.9,7.0,88,0.00,,,0.00,Rainwise IP-100,2014-02-19 12:51:00,
2014-02-19 07:56:00,32.6,31.0,30.02,South,180,4.0,8.0,88,0.00,,,0.00,Rainwise IP-100,2014-02-19 12:56:00,
2014-02-19 08:01:00,33.1,31.0,30.01,SSE,157,2.6,7.0,87,0.00,,,0.00,Rainwise IP-100,2014-02-19 13:01:00,
2014-02-19 08:06:00,33.7,31.0,30.01,SSE,157,3.7,9.0,87,0.00,,,0.00,Rainwise IP-100,2014-02-19 13:06:00,
2014-02-19 08:11:00,34.6,31.0,30.01,SSE,157,5.6,13.0,86,0.00,,,0.00,Rainwise IP-100,2014-02-19 13:11:00,
2014-02-19 08:16:00,35.6,32.0,30.01,SE,135,4.0,16.0,84,0.00,,,0.00,Rainwise IP-100,2014-02-19 13:16:00,
2014-02-19 08:22:00,36.4,31.0,30.01,ESE,112,11.7,12.0,83,0.00,,,0.00,Rainwise IP-100,2014-02-19 13:22:00,
2014-02-19 08:27:00,37.0,32.0,30.01,ESE,112,4.9,17.0,83,0.00,,,0.00,Rainwise IP-100,2014-02-19 13:27:00,
2014-02-19 08:32:00,37.6,33.0,30.01,SSE,157,7.0,17.0,83,0.00,,,0.00,Rainwise IP-100,2014-02-19 13:32:00,
2014-02-19 08:37:00,38.1,33.0,30.01,ESE,112,14.5,18.0,82,0.00,,,0.00,Rainwise IP-100,2014-02-19 13:37:00,
2014-02-19 08:42:00,38.6,35.0,30.01,SSW,202,7.2,19.0,82,0.00,,,0.00,Rainwise IP-100,2014-02-19 13:42:00,
2014-02-19 08:47:00,39.0,35.0,30.01,ESE,112,4.9,14.0,82,0.00,,,0.00,Rainwise IP-100,2014-02-19 13:47:00,
2014-02-19 08:52:00,39.4,35.0,30.01,ESE,112,10.0,18.0,82,0.00,,,0.00,Rainwise IP-100,2014-02-19 13:52:00,
2014-02-19 08:57:00,40.0,36.0,30.01,South,180,11.7,13.0,82,0.00,,,0.00,Rainwise IP-100,2014-02-19 13:57:00,
2014-02-19 09:03:00,40.5,36.0,30.02,SSE,157,7.0,15.0,81,0.00,,,0.00,Rainwise IP-100,2014-02-19 14:03:00,
2014-02-19 09:08:00,40.8,36.0,30.02,SSE,157,12.8,17.0,80,0.00,,,0.00,Rainwise IP-100,2014-02-19 14:08:00,
2014-02-19 09:13:00,40.9,36.0,30.02,SSE,157,9.1,17.0,80,0.00,,,0.00,Rainwise IP-100,2014-02-19 14:13:00,
2014-02-19 09:18:00,40.9,36.0,30.02,SSW,202,7.5,15.0,80,0.00,,,0.00,Rainwise IP-100,2014-02-19 14:18:00,
2014-02-19 09:23:00,41.0,36.0,30.02,South,180,9.8,14.0,80,0.00,,,0.00,Rainwise IP-100,2014-02-19 14:23:00,
2014-02-19 09:28:00,41.1,36.0,30.02,SSE,157,6.8,14.0,80,0.00,,,0.00,Rainwise IP-100,2014-02-19 14:28:00,
2014-02-19 09:33:00,41.2,36.0,30.01,SE,135,8.4,15.0,81,0.00,,,0.00,Rainwise IP-100,2014-02-19 14:33:00,
2014-02-19 09:39:00,41.4,36.0,30.00,SSE,157,2.6,18.0,81,0.00,,,0.00,Rainwise IP-100,2014-02-19 14:39:00,
2014-02-19 09:44:00,41.4,36.0,30.01,ESE,112,5.6,14.0,81,0.00,,,0.00,Rainwise IP-100,2014-02-19 14:44:00,
2014-02-19 09:49:00,41.5,37.0,30.00,ENE,67,4.4,15.0,81,0.00,,,0.00,Rainwise IP-100,2014-02-19 14:49:00,
2014-02-19 09:54:00,41.7,37.0,30.00,ESE,112,5.1,16.0,81,0.00,,,0.00,Rainwise IP-100,2014-02-19 14:54:00,
2014-02-19 09:59:00,41.9,37.0,29.98,SSE,157,8.2,17.0,81,0.00,,,0.00,Rainwise IP-100,2014-02-19 14:59:00,
2014-02-19 10:04:00,42.1,37.0,29.98,SE,135,5.4,15.0,81,0.00,,,0.00,Rainwise IP-100,2014-02-19 15:04:00,
2014-02-19 10:09:00,42.3,37.0,29.98,SSE,157,4.4,15.0,81,0.00,,,0.00,Rainwise IP-100,2014-02-19 15:09:00,
2014-02-19 10:14:00,42.5,38.0,29.97,ESE,112,7.7,16.0,81,0.00,,,0.00,Rainwise IP-100,2014-02-19 15:14:00,
2014-02-19 10:20:00,42.7,38.0,29.95,East,90,10.3,23.0,81,0.00,,,0.00,Rainwise IP-100,2014-02-19 15:20:00,
2014-02-19 10:25:00,42.9,38.0,29.96,SSE,157,6.3,21.0,81,0.00,,,0.00,Rainwise IP-100,2014-02-19 15:25:00,
2014-02-19 10:30:00,43.3,38.0,29.95,SSE,157,7.0,19.0,81,0.00,,,0.00,Rainwise IP-100,2014-02-19 15:30:00,
2014-02-19 10:35:00,43.5,38.0,29.94,SSE,157,16.1,19.0,81,0.00,,,0.00,Rainwise IP-100,2014-02-19 15:35:00,
2014-02-19 10:40:00,43.5,38.0,29.94,ESE,112,10.0,17.0,81,0.00,,,0.00,Rainwise IP-100,2014-02-19 15:40:00,
2014-02-19 10:45:00,43.5,38.0,29.94,SE,135,17.5,19.0,81,0.00,,,0.00,Rainwise IP-100,2014-02-19 15:45:00,
2014-02-19 10:50:00,43.6,38.0,29.94,SE,135,18.7,19.0,81,0.00,,,0.00,Rainwise IP-100,2014-02-19 15:50:00,
2014-02-19 10:56:00,43.8,39.0,29.94,SSE,157,15.6,21.0,82,0.00,,,0.00,Rainwise IP-100,2014-02-19 15:56:00,
2014-02-19 11:01:00,44.1,39.0,29.93,SSE,157,2.3,20.0,82,0.00,,,0.00,Rainwise IP-100,2014-02-19 16:01:00,
2014-02-19 11:06:00,44.1,39.0,29.93,SSE,157,15.9,22.0,82,0.00,,,0.00,Rainwise IP-100,2014-02-19 16:06:00,
2014-02-19 11:08:00,44.1,39.0,29.93,SE,135,11.2,20.0,82,0.00,,,0.00,Rainwise IP-100,2014-02-19 16:08:00,
2014-02-19 11:13:00,44.0,39.0,29.94,SE,135,0.0,18.0,83,0.00,,,0.00,Rainwise IP-100,2014-02-19 16:13:00,
2014-02-19 11:18:00,43.8,39.0,29.93,SSW,202,8.9,17.0,83,0.00,,,0.00,Rainwise IP-100,2014-02-19 16:18:00,
2014-02-19 11:23:00,43.6,39.0,29.92,East,90,7.2,19.0,84,0.00,,,0.00,Rainwise IP-100,2014-02-19 16:23:00,
2014-02-19 11:28:00,43.4,39.0,29.91,SSE,157,6.5,16.0,85,0.00,,,0.00,Rainwise IP-100,2014-02-19 16:28:00,
2014-02-19 11:33:00,43.4,39.0,29.90,SSE,157,7.7,15.0,86,0.00,,,0.00,Rainwise IP-100,2014-02-19 16:33:00,
2014-02-19 11:39:00,43.4,39.0,29.90,SE,135,5.1,14.0,86,0.00,,,0.00,Rainwise IP-100,2014-02-19 16:39:00,
2014-02-19 11:44:00,43.5,40.0,29.90,SE,135,6.5,13.0,87,0.00,,,0.00,Rainwise IP-100,2014-02-19 16:44:00,
2014-02-19 11:49:00,43.5,40.0,29.89,SSW,202,6.1,18.0,87,0.00,,,0.00,Rainwise IP-100,2014-02-19 16:49:00,
2014-02-19 11:54:00,43.5,40.0,29.90,ESE,112,8.6,12.0,87,0.00,,,0.00,Rainwise IP-100,2014-02-19 16:54:00,
2014-02-19 11:59:00,43.6,41.0,29.89,SE,135,6.5,13.0,88,0.00,,,0.00,Rainwise IP-100,2014-02-19 16:59:00,
2014-02-19 12:04:00,43.7,41.0,29.89,SSE,157,9.1,16.0,88,0.00,,,0.00,Rainwise IP-100,2014-02-19 17:04:00,
2014-02-19 12:09:00,43.8,41.0,29.90,SSE,157,14.9,16.0,89,0.00,,,0.00,Rainwise IP-100,2014-02-19 17:09:00,
2014-02-19 12:15:00,43.9,41.0,29.90,SSE,157,9.1,15.0,89,0.00,,,0.00,Rainwise IP-100,2014-02-19 17:15:00,
2014-02-19 12:20:00,44.0,41.0,29.89,ESE,112,5.8,12.0,89,0.00,,,0.00,Rainwise IP-100,2014-02-19 17:20:00,
2014-02-19 12:25:00,44.0,41.0,29.89,South,180,3.7,12.0,89,0.00,,,0.00,Rainwise IP-100,2014-02-19 17:25:00,
2014-02-19 12:30:00,44.0,41.0,29.88,SSW,202,2.3,11.0,90,0.00,,,0.00,Rainwise IP-100,2014-02-19 17:30:00,
2014-02-19 12:35:00,44.1,41.0,29.87,SSE,157,2.1,15.0,90,0.00,,,0.00,Rainwise IP-100,2014-02-19 17:35:00,
2014-02-19 12:40:00,44.1,41.0,29.86,ESE,112,4.7,9.0,90,0.00,,,0.00,Rainwise IP-100,2014-02-19 17:40:00,
2014-02-19 12:45:00,44.1,41.0,29.84,ESE,112,7.5,10.0,90,0.00,,,0.00,Rainwise IP-100,2014-02-19 17:45:00,
2014-02-19 12:50:00,44.3,41.0,29.84,SE,135,7.7,14.0,91,0.00,,,0.00,Rainwise IP-100,2014-02-19 17:50:00,
2014-02-19 12:56:00,44.5,42.0,29.84,SE,135,4.4,11.0,91,0.00,,,0.00,Rainwise IP-100,2014-02-19 17:56:00,
2014-02-19 13:01:00,44.7,42.0,29.83,ESE,112,12.4,13.0,90,0.00,,,0.00,Rainwise IP-100,2014-02-19 18:01:00,
2014-02-19 13:06:00,44.9,42.0,29.83,ENE,67,5.6,14.0,90,0.00,,,0.00,Rainwise IP-100,2014-02-19 18:06:00,
2014-02-19 13:11:00,45.0,42.0,29.81,SSE,157,10.7,11.0,90,0.00,,,0.00,Rainwise IP-100,2014-02-19 18:11:00,
2014-02-19 13:16:00,45.0,42.0,29.80,ENE,67,4.9,11.0,90,0.00,,,0.00,Rainwise IP-100,2014-02-19 18:16:00,
2014-02-19 13:21:00,45.1,42.0,29.81,SSE,157,3.3,12.0,91,0.00,,,0.00,Rainwise IP-100,2014-02-19 18:21:00,
2014-02-19 13:26:00,45.1,42.0,29.81,SSW,202,1.2,8.0,91,0.00,,,0.00,Rainwise IP-100,2014-02-19 18:26:00,
2014-02-19 13:32:00,45.1,42.0,29.80,SSW,202,5.4,5.4,91,0.00,,,0.00,Rainwise IP-100,2014-02-19 18:32:00,
2014-02-19 13:37:00,45.0,42.0,29.81,SSW,202,3.5,7.0,91,0.00,,,0.00,Rainwise IP-100,2014-02-19 18:37:00,
2014-02-19 13:42:00,44.9,43.0,29.81,SSE,157,3.3,5.0,92,0.06,,,0.01,Rainwise IP-100,2014-02-19 18:42:00,
2014-02-19 13:47:00,44.7,43.0,29.80,SE,135,4.2,6.0,93,0.12,,,0.02,Rainwise IP-100,2014-02-19 18:47:00,
2014-02-19 13:52:00,44.6,43.0,29.79,SSE,157,2.8,7.0,94,0.18,,,0.04,Rainwise IP-100,2014-02-19 18:52:00,
2014-02-19 13:57:00,44.6,43.0,29.78,SE,135,1.9,7.0,94,0.18,,,0.05,Rainwise IP-100,2014-02-19 18:57:00,
2014-02-19 14:02:00,44.6,44.0,29.78,South,180,2.1,4.0,95,0.12,,,0.01,Rainwise IP-100,2014-02-19 19:02:00,
2014-02-19 14:07:00,44.6,44.0,29.78,SSW,202,4.7,5.0,96,0.12,,,0.03,Rainwise IP-100,2014-02-19 19:07:00,
2014-02-19 14:13:00,44.6,44.0,29.77,SSE,157,2.3,6.0,96,0.18,,,0.04,Rainwise IP-100,2014-02-19 19:13:00,
2014-02-19 14:18:00,44.5,44.0,29.77,ENE,67,1.6,4.0,96,0.12,,,0.05,Rainwise IP-100,2014-02-19 19:18:00,
2014-02-19 14:23:00,44.4,43.0,29.77,WSW,247,4.4,7.0,97,0.12,,,0.06,Rainwise IP-100,2014-02-19 19:23:00,
2014-02-19 14:28:00,44.4,43.0,29.77,WSW,247,4.4,5.0,97,0.12,,,0.07,Rainwise IP-100,2014-02-19 19:28:00,
2014-02-19 14:33:00,44.3,43.0,29.77,WSW,247,0.0,4.0,97,0.12,,,0.08,Rainwise IP-100,2014-02-19 19:33:00,
2014-02-19 14:38:00,44.0,43.0,29.77,WSW,247,0.0,0.0,97,0.06,,,0.09,Rainwise IP-100,2014-02-19 19:38:00,
2014-02-19 14:43:00,43.9,43.0,29.75,WSW,247,0.0,0.0,98,0.12,,,0.10,Rainwise IP-100,2014-02-19 19:43:00,
2014-02-19 14:49:00,43.8,43.0,29.75,ESE,112,0.0,2.0,98,0.18,,,0.11,Rainwise IP-100,2014-02-19 19:49:00,
2014-02-19 14:54:00,43.7,43.0,29.74,ENE,67,3.5,3.5,98,0.12,,,0.12,Rainwise IP-100,2014-02-19 19:54:00,
2014-02-19 14:59:00,42.8,42.0,29.74,NNE,22,2.8,3.0,97,0.12,,,0.13,Rainwise IP-100,2014-02-19 19:59:00,
2014-02-19 15:04:00,41.4,40.0,29.74,NNW,337,0.0,3.0,96,0.06,,,0.13,Rainwise IP-100,2014-02-19 20:04:00,
2014-02-19 15:09:00,40.3,39.0,29.73,SSW,202,2.3,2.3,95,0.06,,,0.14,Rainwise IP-100,2014-02-19 20:09:00,
2014-02-19 15:14:00,39.9,39.0,29.73,ESE,112,1.9,4.0,97,0.12,,,0.15,Rainwise IP-100,2014-02-19 20:14:00,
2014-02-19 15:19:00,40.3,39.0,29.73,ESE,112,0.0,2.0,97,0.12,,,0.16,Rainwise IP-100,2014-02-19 20:19:00,
2014-02-19 15:24:00,40.8,40.0,29.73,ESE,112,0.0,1.0,98,0.12,,,0.17,Rainwise IP-100,2014-02-19 20:24:00,
2014-02-19 15:30:00,41.3,40.0,29.73,WSW,247,2.6,4.0,98,0.12,,,0.18,Rainwise IP-100,2014-02-19 20:30:00,
2014-02-19 15:35:00,42.4,42.0,29.73,SSW,202,5.4,7.0,99,0.06,,,0.18,Rainwise IP-100,2014-02-19 20:35:00,
2014-02-19 15:40:00,43.6,44.0,29.73,SW,225,8.2,11.0,99,0.00,,,0.18,Rainwise IP-100,2014-02-19 20:40:00,
2014-02-19 15:45:00,44.5,45.0,29.72,SSW,202,7.9,13.0,99,0.00,,,0.18,Rainwise IP-100,2014-02-19 20:45:00,
2014-02-19 15:50:00,45.0,45.0,29.72,SSW,202,7.7,12.0,99,0.00,,,0.18,Rainwise IP-100,2014-02-19 20:50:00,
2014-02-19 15:55:00,45.3,45.0,29.72,SSW,202,6.1,14.0,99,0.00,,,0.18,Rainwise IP-100,2014-02-19 20:55:00,
2014-02-19 16:00:00,45.5,46.0,29.72,SSW,202,7.2,15.0,99,0.00,,,0.18,Rainwise IP-100,2014-02-19 21:00:00,
2014-02-19 16:06:00,45.5,46.0,29.72,SSW,202,9.8,14.0,99,0.00,,,0.18,Rainwise IP-100,2014-02-19 21:06:00,
2014-02-19 16:11:00,45.5,46.0,29.72,SSW,202,12.6,14.0,99,0.00,,,0.18,Rainwise IP-100,2014-02-19 21:11:00,
2014-02-19 16:16:00,45.5,45.0,29.72,SW,225,8.2,13.0,98,0.00,,,0.18,Rainwise IP-100,2014-02-19 21:16:00,
2014-02-19 16:21:00,45.4,44.0,29.72,SW,225,7.5,12.0,98,0.00,,,0.18,Rainwise IP-100,2014-02-19 21:21:00,
2014-02-19 16:26:00,45.4,44.0,29.73,SSW,202,4.2,14.0,98,0.00,,,0.18,Rainwise IP-100,2014-02-19 21:26:00,
2014-02-19 16:31:00,45.3,44.0,29.73,SSW,202,6.3,11.0,97,0.00,,,0.18,Rainwise IP-100,2014-02-19 21:31:00,
2014-02-19 16:36:00,45.2,44.0,29.72,SW,225,5.8,11.0,97,0.00,,,0.18,Rainwise IP-100,2014-02-19 21:36:00,
2014-02-19 16:41:00,45.1,44.0,29.72,SSW,202,9.1,13.0,97,0.00,,,0.18,Rainwise IP-100,2014-02-19 21:41:00,
2014-02-19 16:47:00,45.0,44.0,29.72,SSW,202,11.7,14.0,96,0.00,,,0.18,Rainwise IP-100,2014-02-19 21:47:00,
2014-02-19 16:52:00,44.9,44.0,29.72,SSW,202,7.5,11.0,96,0.00,,,0.18,Rainwise IP-100,2014-02-19 21:52:00,
2014-02-19 16:57:00,44.8,44.0,29.72,SW,225,8.4,12.0,96,0.00,,,0.18,Rainwise IP-100,2014-02-19 21:57:00,
2014-02-19 17:02:00,44.7,44.0,29.72,SSW,202,7.7,11.0,96,0.00,,,0.18,Rainwise IP-100,2014-02-19 22:02:00,
2014-02-19 17:07:00,44.6,44.0,29.72,SSW,202,6.1,13.0,96,0.00,,,0.18,Rainwise IP-100,2014-02-19 22:07:00,
2014-02-19 17:12:00,44.2,43.0,29.73,SW,225,9.6,11.0,96,0.00,,,0.18,Rainwise IP-100,2014-02-19 22:12:00,
2014-02-19 17:17:00,43.8,43.0,29.73,WSW,247,7.2,9.0,96,0.00,,,0.18,Rainwise IP-100,2014-02-19 22:17:00,
2014-02-19 17:23:00,43.6,43.0,29.73,SSW,202,5.8,10.0,96,0.00,,,0.18,Rainwise IP-100,2014-02-19 22:23:00,
2014-02-19 17:28:00,43.2,42.0,29.74,SSW,202,5.6,11.0,96,0.00,,,0.18,Rainwise IP-100,2014-02-19 22:28:00,
2014-02-19 17:33:00,42.9,42.0,29.74,SSW,202,6.3,9.0,97,0.00,,,0.18,Rainwise IP-100,2014-02-19 22:33:00,
2014-02-19 17:38:00,42.6,42.0,29.74,SSW,202,7.5,10.0,97,0.00,,,0.18,Rainwise IP-100,2014-02-19 22:38:00,
2014-02-19 17:43:00,42.4,41.0,29.74,SW,225,7.0,11.0,97,0.00,,,0.18,Rainwise IP-100,2014-02-19 22:43:00,
2014-02-19 17:48:00,42.2,41.0,29.75,SSW,202,5.6,11.0,98,0.00,,,0.18,Rainwise IP-100,2014-02-19 22:48:00,
2014-02-19 17:53:00,42.0,41.0,29.75,SSW,202,9.6,12.0,98,0.00,,,0.18,Rainwise IP-100,2014-02-19 22:53:00,
2014-02-19 17:58:00,41.9,41.0,29.75,SSW,202,8.6,10.0,98,0.00,,,0.18,Rainwise IP-100,2014-02-19 22:58:00,
2014-02-19 18:04:00,41.8,41.0,29.75,SSW,202,7.0,14.0,98,0.00,,,0.18,Rainwise IP-100,2014-02-19 23:04:00,
2014-02-19 18:09:00,41.6,41.0,29.76,WSW,247,10.3,15.0,98,0.00,,,0.18,Rainwise IP-100,2014-02-19 23:09:00,
2014-02-19 18:14:00,41.6,42.0,29.76,SSW,202,7.5,14.0,99,0.00,,,0.18,Rainwise IP-100,2014-02-19 23:14:00,
2014-02-19 18:19:00,41.5,41.0,29.76,SSW,202,6.5,17.0,98,0.00,,,0.18,Rainwise IP-100,2014-02-19 23:19:00,
2014-02-19 18:24:00,41.5,41.0,29.77,WSW,247,12.4,15.0,98,0.00,,,0.18,Rainwise IP-100,2014-02-19 23:24:00,
2014-02-19 18:29:00,41.3,40.0,29.77,SW,225,12.4,16.0,98,0.00,,,0.18,Rainwise IP-100,2014-02-19 23:29:00,
2014-02-19 18:34:00,41.2,40.0,29.77,SW,225,13.3,15.0,98,0.00,,,0.18,Rainwise IP-100,2014-02-19 23:34:00,
2014-02-19 18:40:00,41.1,40.0,29.76,WSW,247,9.6,15.0,98,0.00,,,0.18,Rainwise IP-100,2014-02-19 23:40:00,
2014-02-19 18:45:00,40.9,40.0,29.77,West,270,7.0,12.0,98,0.00,,,0.18,Rainwise IP-100,2014-02-19 23:45:00,
2014-02-19 18:50:00,40.6,40.0,29.77,West,270,7.5,14.0,98,0.00,,,0.18,Rainwise IP-100,2014-02-19 23:50:00,
2014-02-19 18:55:00,39.9,40.0,29.78,WSW,247,7.5,13.0,98,0.00,,,0.18,Rainwise IP-100,2014-02-19 23:55:00,
2014-02-19 19:00:00,39.0,38.0,29.81,WSW,247,13.5,16.0,97,0.00,,,0.18,Rainwise IP-100,2014-02-20 00:00:00,
2014-02-19 19:05:00,38.3,38.0,29.80,West,270,9.8,14.0,98,0.00,,,0.18,Rainwise IP-100,2014-02-20 00:05:00,
2014-02-19 19:10:00,38.2,38.0,29.80,WSW,247,9.6,18.0,98,0.24,,,0.23,Rainwise IP-100,2014-02-20 00:10:00,
2014-02-19 19:15:00,38.1,38.0,29.78,WNW,292,8.4,11.0,99,0.36,,,0.24,Rainwise IP-100,2014-02-20 00:15:00,
2014-02-19 19:21:00,37.9,38.0,29.79,WSW,247,3.5,11.0,99,0.12,,,0.25,Rainwise IP-100,2014-02-20 00:21:00,
2014-02-19 19:26:00,37.8,38.0,29.79,West,270,3.3,8.0,99,0.06,,,0.25,Rainwise IP-100,2014-02-20 00:26:00,
2014-02-19 19:31:00,37.6,38.0,29.80,SW,225,7.5,11.0,99,0.00,,,0.25,Rainwise IP-100,2014-02-20 00:31:00,
2014-02-19 19:36:00,37.3,37.0,29.80,WSW,247,6.8,11.0,99,0.00,,,0.25,Rainwise IP-100,2014-02-20 00:36:00,
2014-02-19 19:41:00,37.1,37.0,29.80,WSW,247,4.9,12.0,100,0.00,,,0.25,Rainwise IP-100,2014-02-20 00:41:00,
2014-02-19 19:46:00,37.0,37.0,29.81,WSW,247,8.4,14.0,100,0.00,,,0.25,Rainwise IP-100,2014-02-20 00:46:00,
2014-02-19 19:51:00,36.9,37.0,29.81,WSW,247,8.6,14.0,100,0.00,,,0.25,Rainwise IP-100,2014-02-20 00:51:00,
2014-02-19 19:57:00,36.7,37.0,29.81,WSW,247,5.1,11.0,100,0.00,,,0.25,Rainwise IP-100,2014-02-20 00:57:00,
2014-02-19 20:02:00,36.6,37.0,29.81,WSW,247,11.4,11.4,100,0.00,,,0.25,Rainwise IP-100,2014-02-20 01:02:00,
2014-02-19 20:07:00,36.6,37.0,29.82,WNW,292,4.9,12.0,100,0.00,,,0.25,Rainwise IP-100,2014-02-20 01:07:00,
2014-02-19 20:12:00,36.7,37.0,29.82,West,270,6.5,10.0,100,0.00,,,0.25,Rainwise IP-100,2014-02-20 01:12:00,
2014-02-19 20:17:00,36.7,37.0,29.82,West,270,8.2,10.0,100,0.06,,,0.26,Rainwise IP-100,2014-02-20 01:17:00,
2014-02-19 20:22:00,36.6,37.0,29.82,West,270,8.2,11.0,100,0.06,,,0.26,Rainwise IP-100,2014-02-20 01:22:00,
2014-02-19 20:27:00,36.2,36.0,29.83,West,270,8.9,10.0,100,0.00,,,0.26,Rainwise IP-100,2014-02-20 01:27:00,
2014-02-19 20:32:00,35.8,36.0,29.82,WSW,247,7.2,10.0,100,0.00,,,0.26,Rainwise IP-100,2014-02-20 01:32:00,
2014-02-19 20:38:00,35.5,36.0,29.83,West,270,9.6,11.0,100,0.00,,,0.26,Rainwise IP-100,2014-02-20 01:38:00,
2014-02-19 20:43:00,35.3,35.0,29.83,WSW,247,7.0,11.0,100,0.00,,,0.26,Rainwise IP-100,2014-02-20 01:43:00,
2014-02-19 20:48:00,35.2,35.0,29.83,West,270,6.3,10.0,100,0.00,,,0.26,Rainwise IP-100,2014-02-20 01:48:00,
2014-02-19 20:53:00,35.3,35.0,29.83,WSW,247,4.7,10.0,100,0.00,,,0.26,Rainwise IP-100,2014-02-20 01:53:00,
2014-02-19 20:58:00,35.4,35.0,29.84,WSW,247,5.4,8.0,100,0.00,,,0.26,Rainwise IP-100,2014-02-20 01:58:00,
2014-02-19 21:03:00,35.5,36.0,29.84,West,270,4.7,9.0,100,0.00,,,0.26,Rainwise IP-100,2014-02-20 02:03:00,
2014-02-19 21:08:00,35.5,36.0,29.84,WSW,247,7.2,10.0,100,0.00,,,0.26,Rainwise IP-100,2014-02-20 02:08:00,
2014-02-19 21:14:00,35.4,35.0,29.85,WSW,247,4.7,8.0,100,0.00,,,0.26,Rainwise IP-100,2014-02-20 02:14:00,
2014-02-19 21:19:00,35.3,35.0,29.85,WNW,292,4.9,8.0,100,0.00,,,0.26,Rainwise IP-100,2014-02-20 02:19:00,
2014-02-19 21:24:00,35.2,35.0,29.85,West,270,4.2,7.0,100,0.00,,,0.26,Rainwise IP-100,2014-02-20 02:24:00,
2014-02-19 21:29:00,35.2,35.0,29.85,WSW,247,4.2,8.0,100,0.00,,,0.26,Rainwise IP-100,2014-02-20 02:29:00,
2014-02-19 21:34:00,35.4,35.0,29.85,WSW,247,7.9,9.0,100,0.00,,,0.26,Rainwise IP-100,2014-02-20 02:34:00,
2014-02-19 21:39:00,35.7,36.0,29.85,West,270,4.7,10.0,100,0.00,,,0.26,Rainwise IP-100,2014-02-20 02:39:00,
2014-02-19 21:44:00,35.8,36.0,29.86,WSW,247,8.9,10.0,100,0.00,,,0.26,Rainwise IP-100,2014-02-20 02:44:00,
2014-02-19 21:49:00,36.0,36.0,29.85,WSW,247,8.2,11.0,100,0.00,,,0.26,Rainwise IP-100,2014-02-20 02:49:00,
2014-02-19 21:55:00,36.3,36.0,29.86,West,270,10.7,13.0,100,0.00,,,0.26,Rainwise IP-100,2014-02-20 02:55:00,
2014-02-19 22:00:00,36.6,37.0,29.87,West,270,7.2,14.0,100,0.00,,,0.26,Rainwise IP-100,2014-02-20 03:00:00,
2014-02-19 22:05:00,36.9,37.0,29.87,WSW,247,13.5,14.0,100,0.00,,,0.26,Rainwise IP-100,2014-02-20 03:05:00,
2014-02-19 22:10:00,37.2,37.0,29.88,SSW,202,6.3,14.0,100,0.00,,,0.26,Rainwise IP-100,2014-02-20 03:10:00,
2014-02-19 22:15:00,37.4,37.0,29.88,WSW,247,6.3,15.0,100,0.00,,,0.26,Rainwise IP-100,2014-02-20 03:15:00,
2014-02-19 22:20:00,37.4,37.0,29.88,WSW,247,8.6,15.0,100,0.00,,,0.26,Rainwise IP-100,2014-02-20 03:20:00,
2014-02-19 22:25:00,37.3,37.0,29.88,WSW,247,7.9,12.0,100,0.00,,,0.26,Rainwise IP-100,2014-02-20 03:25:00,
2014-02-19 22:31:00,37.1,37.0,29.88,SW,225,6.3,14.0,100,0.00,,,0.26,Rainwise IP-100,2014-02-20 03:31:00,
2014-02-19 22:36:00,36.9,37.0,29.89,WSW,247,10.5,13.0,100,0.00,,,0.26,Rainwise IP-100,2014-02-20 03:36:00,
2014-02-19 22:41:00,36.7,37.0,29.89,WSW,247,6.5,15.0,100,0.00,,,0.26,Rainwise IP-100,2014-02-20 03:41:00,
2014-02-19 22:46:00,36.6,37.0,29.90,WSW,247,8.2,14.0,100,0.00,,,0.26,Rainwise IP-100,2014-02-20 03:46:00,
2014-02-19 22:51:00,36.6,37.0,29.90,WSW,247,11.7,11.7,100,0.00,,,0.26,Rainwise IP-100,2014-02-20 03:51:00,
2014-02-19 22:56:00,36.6,37.0,29.90,WSW,247,9.3,14.0,99,0.00,,,0.26,Rainwise IP-100,2014-02-20 03:56:00,
2014-02-19 23:01:00,36.5,37.0,29.90,WSW,247,10.0,14.0,99,0.00,,,0.26,Rainwise IP-100,2014-02-20 04:01:00,
2014-02-19 23:06:00,36.4,36.0,29.91,West,270,4.4,13.0,98,0.00,,,0.26,Rainwise IP-100,2014-02-20 04:06:00,
2014-02-19 23:12:00,36.2,36.0,29.91,WSW,247,8.2,14.0,98,0.00,,,0.26,Rainwise IP-100,2014-02-20 04:12:00,
2014-02-19 23:17:00,36.0,36.0,29.91,West,270,7.2,14.0,98,0.00,,,0.26,Rainwise IP-100,2014-02-20 04:17:00,
2014-02-19 23:22:00,35.8,36.0,29.92,WNW,292,7.9,12.0,98,0.00,,,0.26,Rainwise IP-100,2014-02-20 04:22:00,
2014-02-19 23:27:00,35.6,36.0,29.92,West,270,7.7,12.0,98,0.00,,,0.26,Rainwise IP-100,2014-02-20 04:27:00,
2014-02-19 23:32:00,35.6,36.0,29.92,West,270,8.9,13.0,98,0.00,,,0.26,Rainwise IP-100,2014-02-20 04:32:00,
2014-02-19 23:37:00,35.6,36.0,29.93,West,270,6.8,14.0,98,0.00,,,0.26,Rainwise IP-100,2014-02-20 04:37:00,
2014-02-19 23:42:00,35.6,36.0,29.93,WSW,247,9.6,14.0,98,0.00,,,0.26,Rainwise IP-100,2014-02-20 04:42:00,
2014-02-19 23:48:00,35.6,35.0,29.94,WSW,247,9.6,15.0,97,0.00,,,0.26,Rainwise IP-100,2014-02-20 04:48:00,
2014-02-19 23:53:00,35.6,35.0,29.94,WSW,247,6.1,12.0,97,0.00,,,0.26,Rainwise IP-100,2014-02-20 04:53:00,
2014-02-19 23:58:00,35.5,35.0,29.94,WSW,247,10.5,13.0,97,0.00,,,0.26,Rainwise IP-100,2014-02-20 04:58:00,